Morgantown, WV

5:30 PM EDT on September 18, 2014 (GMT -0400)
Brooks green roof | Change Station
CLOSE
Current Station
Personal Weather Station
Location: Morgantown, WV
Elevation: 873 ft
Nearby Weather Stations

Elev 873 ft 39.64 °N, 79.96 °W | Updated 3 minutes ago

Partly Cloudy
Partly Cloudy
72.0 °F
Feels Like 77 °F
N
0.9
Wind Variable Wind from WSW
Gusts 3.6 mph

Today
High -- | Low -- °F
--% Chance of Precip.
Yesterday
High -- | Low -- °F
Precip. -- in
7:04 AM 7:24 PM
Waning Crescent, 24% visible
Pressure 30.07 in
Visibility 10.0 miles
Clouds Clear
Heat Index 77 °F
Dew Point 49 °F
Humidity 45%
Rainfall 0.00 in
Snow Depth Not available.
UV 3 out of 12
Pollen 4.10 out of 12
Air Quality Not available.
Flu Activity Not available.
METAR KMGW 182053Z 36007KT 10SM CLR 22/07 A3008 RMK AO2 SLP181 T02170067 56008

More Conditions Fewer Conditions

Pressure 30.07 in
Visibility 10.0 miles
Clouds Clear
Heat Index 77 °F
Dew Point 49 °F
Humidity 45%
Rainfall 0.00 in
Snow Depth Not available.
UV 3 out of 12
Pollen 4.10 out of 12
Air Quality Not available.
Flu Activity Not available.
METAR KMGW 182053Z 36007KT 10SM CLR 22/07 A3008 RMK AO2 SLP181 T02170067 56008

More Conditions Fewer Conditions

10-Day Weather Forecast

Almanac

Astronomy

Sep. 18, 2014 Rise Set
Actual Time 7:04 AM EDT 7:24 PM EDT
Civil Twilight 6:37 AM EDT 7:50 PM EDT
Nautical Twilight 6:05 AM EDT 8:22 PM EDT
Astronomical Twilight 5:33 AM EDT 8:54 PM EDT
Moon 1:55 AM EDT 4:13 PM EDT
Length of Visible Light 13h 13m
Length of Day
12h 19m
Tomorrow will be 2m 34s shorter.
Waning Crescent, 24% of the Moon is Illuminated
Today
Waning Crescent
Sep 24
New
Oct 1
First Quarter
Oct 8
Full
Oct 15
Last Quarter

Today's Extremes

State Highs State Lows

Community

WunderPhotos

Upload Photos

1,754,452 photos uploaded!

WunderBlogs® & News

Nearby

Snow Depth

Station Depth Elevation
No new snow has been reported.

Earthquake Activity

City Distance Mag. Time & Date
No recent earthquake activity has been reported nearby.
Minimum magnitude displayed is 2.5.

Coastal Water Temperatures

Place Temperature
No Stations Reporting

Nearby Weather Stations